Time;durP1;ratioP1;P1;durP2;ratioP2;P2;SDS_P1;SDS_P2;PMS_P1;PMS_P2;Temp;Humidity;BMP_temperature;BMP_pressure;BME280_temperature;BME280_humidity;BME280_pressure;Samples;Min_cycle;Max_cycle;Signal;HPM_P1;HPM_P2
2021/11/08 00:00:41;;;;;;;;;29.75;26.50;;;;;9.85;64.36;102006.22;6250045;22;45724;-90
2021/11/08 00:03:10;;;;;;;;;32.25;24.75;;;;;9.86;64.07;102015.88;6254739;22;47048;-89
2021/11/08 00:05:40;;;;;;;;;29.50;22.75;;;;;9.92;64.29;102030.03;6253383;22;45411;-90
2021/11/08 00:08:06;;;;;;;;;29.25;24.00;;;;;9.94;64.44;102036.22;6253841;22;45222;-92
2021/11/08 00:10:35;;;;;;;;;25.25;22.75;;;;;9.84;64.33;102012.34;6283320;22;45501;-90
2021/11/08 00:13:06;;;;;;;;;29.75;23.00;;;;;9.88;64.48;102016.78;6282331;22;46887;-89
2021/11/08 00:16:04;;;;;;;;;27.00;23.50;;;;;9.69;64.42;101999.75;6259442;22;45317;-89
2021/11/08 00:20:58;;;;;;;;;29.00;25.50;;;;;9.82;64.51;102017.56;6282245;22;45317;-91
2021/11/08 00:23:26;;;;;;;;;24.50;21.75;;;;;9.71;64.32;102012.09;6249583;22;48067;-91
2021/11/08 00:25:52;;;;;;;;;28.75;27.50;;;;;9.66;64.73;102010.22;6276108;22;45735;-89
2021/11/08 00:28:19;;;;;;;;;23.00;21.50;;;;;9.65;64.86;102025.13;6277074;22;45336;-89
2021/11/08 00:30:46;;;;;;;;;29.25;22.50;;;;;9.57;64.71;102005.66;6279005;22;45466;-91
2021/11/08 00:33:17;;;;;;;;;32.00;25.75;;;;;9.66;64.91;102010.22;6248135;22;46992;-89
2021/11/08 00:35:51;;;;;;;;;28.75;24.00;;;;;9.66;65.13;102023.38;6247966;22;45573;-90
2021/11/08 00:38:18;;;;;;;;;26.50;22.50;;;;;9.53;65.20;102009.06;6248932;22;45366;-90
2021/11/08 00:40:47;;;;;;;;;28.75;24.25;;;;;9.48;65.03;102008.09;6256101;22;45153;-90
2021/11/08 00:43:13;;;;;;;;;26.25;21.00;;;;;9.58;65.41;102022.31;6251583;22;46756;-89
2021/11/08 00:45:39;;;;;;;;;25.50;22.00;;;;;9.53;65.30;102021.34;6255952;22;45290;-93
2021/11/08 00:48:08;;;;;;;;;27.00;23.50;;;;;9.32;65.36;101988.47;6262357;22;44656;-94
2021/11/08 00:50:34;;;;;;;;;26.25;23.25;;;;;9.40;65.63;102005.28;6260935;22;45218;-94
2021/11/08 00:53:00;;;;;;;;;26.75;22.75;;;;;9.44;65.66;102025.53;6262823;22;46581;-94
2021/11/08 00:55:27;;;;;;;;;24.25;21.75;;;;;9.20;65.73;101989.13;6261182;22;45419;-93
2021/11/08 00:57:57;;;;;;;;;29.50;26.50;;;;;9.30;65.79;102021.72;6263571;22;44751;-94
2021/11/08 01:00:26;;;;;;;;;23.75;22.25;;;;;9.31;66.03;102035.75;6258888;22;45396;-95
2021/11/08 01:02:53;;;;;;;;;24.50;21.50;;;;;9.13;65.97;102002.94;6291570;22;46770;-94
2021/11/08 01:05:19;;;;;;;;;20.50;20.00;;;;;9.08;66.10;102011.59;6268653;22;44661;-94
2021/11/08 01:07:45;;;;;;;;;24.50;22.00;;;;;9.22;66.23;102032.06;6269419;22;44587;-95
2021/11/08 01:10:17;;;;;;;;;23.00;18.25;;;;;9.19;66.27;102036.34;6272321;22;44819;-95
2021/11/08 01:12:43;;;;;;;;;20.75;20.50;;;;;9.17;66.06;102032.84;6270639;22;47268;-93
2021/11/08 01:15:10;;;;;;;;;26.50;22.00;;;;;9.13;66.26;102036.22;6261712;22;44697;-95
2021/11/08 01:17:37;;;;;;;;;22.75;22.00;;;;;9.07;66.56;102039.59;6259028;22;44720;-95
2021/11/08 01:20:06;;;;;;;;;25.50;22.50;;;;;9.06;66.55;102035.19;6285593;22;45161;-96
2021/11/08 01:22:32;;;;;;;;;19.50;16.75;;;;;8.95;66.37;102007.78;6258163;22;46906;-96
2021/11/08 01:24:57;;;;;;;;;20.00;19.00;;;;;8.97;66.73;102011.34;6257503;22;44717;-95
2021/11/08 01:27:36;;;;;;;;;23.75;21.25;;;;;8.91;66.44;102005.94;6259505;22;44666;-94
2021/11/08 01:30:09;;;;;;;;;25.25;20.75;;;;;9.07;66.62;102030.84;6256838;22;44872;-95
2021/11/08 01:32:36;;;;;;;;;15.50;13.00;;;;;8.85;66.80;101998.81;6259400;22;47189;-95
2021/11/08 01:35:02;;;;;;;;;20.00;18.75;;;;;8.97;66.84;102021.84;6282866;22;44662;-95
2021/11/08 01:37:28;;;;;;;;;21.75;19.25;;;;;9.01;67.26;102032.47;6258632;22;45245;-95
2021/11/08 01:39:54;;;;;;;;;19.00;19.00;;;;;8.83;67.54;102005.75;6256259;22;44904;-95
2021/11/08 01:42:20;;;;;;;;;26.75;23.50;;;;;8.94;67.22;102030.53;6258948;22;47165;-95
2021/11/08 01:44:46;;;;;;;;;23.75;21.75;;;;;8.73;67.32;102003.75;6280654;22;45255;-94
2021/11/08 01:47:12;;;;;;;;;14.75;13.75;;;;;8.87;67.58;102025.97;6260766;22;45204;-94
2021/11/08 01:49:40;;;;;;;;;19.75;17.00;;;;;8.64;67.58;101986.06;6260471;22;44767;-94
2021/11/08 01:52:09;;;;;;;;;24.50;21.00;;;;;8.63;67.75;101984.28;6260298;22;47287;-94
2021/11/08 01:54:38;;;;;;;;;22.00;19.50;;;;;8.66;67.71;101986.09;6258881;22;45332;-92
2021/11/08 01:57:04;;;;;;;;;21.75;19.00;;;;;8.77;67.49;101997.75;6257012;22;45369;-93
2021/11/08 01:59:30;;;;;;;;;19.25;16.75;;;;;8.78;67.52;101999.50;6258820;22;45517;-94
2021/11/08 02:01:56;;;;;;;;;18.75;15.25;;;;;8.70;67.65;101982.69;6256473;22;47915;-94
2021/11/08 02:04:23;;;;;;;;;20.50;20.00;;;;;8.86;67.39;102004.97;6259317;22;44810;-95
2021/11/08 02:06:50;;;;;;;;;23.25;18.25;;;;;8.84;67.74;101997.03;6281844;22;45407;-95
2021/11/08 02:09:16;;;;;;;;;23.50;19.00;;;;;8.72;67.36;101981.00;6259922;22;45184;-95
2021/11/08 02:11:43;;;;;;;;;21.25;19.00;;;;;8.73;67.50;101970.53;6257818;22;46912;-96
2021/11/08 02:14:09;;;;;;;;;18.75;18.75;;;;;8.78;67.52;101983.75;6257802;22;44669;-93
2021/11/08 02:16:36;;;;;;;;;24.50;19.75;;;;;8.74;67.71;101974.03;6255917;22;45198;-94
2021/11/08 02:19:03;;;;;;;;;18.25;16.50;;;;;8.88;67.57;101998.00;6253718;22;46069;-94
2021/11/08 02:21:30;;;;;;;;;20.75;17.25;;;;;8.80;67.52;101993.44;6257997;22;47050;-94
2021/11/08 02:23:59;;;;;;;;;19.00;18.00;;;;;8.94;67.39;102014.78;6256016;22;44756;-95
2021/11/08 02:26:28;;;;;;;;;19.25;18.00;;;;;8.80;67.78;101988.19;6256620;22;45210;-94
2021/11/08 02:28:54;;;;;;;;;20.25;17.75;;;;;8.78;67.67;101981.13;6257220;22;44658;-96
2021/11/08 02:31:23;;;;;;;;;21.00;19.00;;;;;8.88;67.70;101998.88;6260122;22;47178;-96
2021/11/08 02:33:54;;;;;;;;;14.75;14.25;;;;;8.87;67.53;102001.47;6259073;22;45387;-94
2021/11/08 02:36:21;;;;;;;;;24.00;20.25;;;;;8.79;67.85;101988.16;6264603;22;44781;-94
2021/11/08 02:38:54;;;;;;;;;19.75;14.00;;;;;8.86;67.72;101999.69;6271023;22;45358;-95
2021/11/08 02:41:26;;;;;;;;;19.00;19.00;;;;;8.66;67.84;101978.22;6267796;22;47241;-95
2021/11/08 02:43:56;;;;;;;;;14.50;11.50;;;;;8.62;67.64;101974.63;6270865;22;44611;-95
2021/11/08 02:46:25;;;;;;;;;18.50;16.00;;;;;8.60;68.07;101973.69;6263562;22;44748;-94
2021/11/08 02:48:52;;;;;;;;;18.00;17.75;;;;;8.58;67.81;101964.88;6260905;22;45398;-94
2021/11/08 02:51:22;;;;;;;;;19.25;17.75;;;;;8.57;68.00;101973.63;6262050;22;47101;-95
2021/11/08 02:53:55;;;;;;;;;19.50;16.25;;;;;8.72;68.04;102000.25;6267093;22;45338;-95
2021/11/08 02:56:21;;;;;;;;;15.50;15.50;;;;;8.55;68.14;101976.22;6262717;22;44721;-96
2021/11/08 02:58:48;;;;;;;;;16.50;14.25;;;;;8.70;68.15;101999.31;6265033;22;44849;-95
2021/11/08 03:01:24;;;;;;;;;15.75;14.00;;;;;8.53;68.07;101970.06;6263908;22;47060;-95
2021/11/08 03:03:56;;;;;;;;;12.00;11.50;;;;;8.48;67.97;101970.78;6259554;22;45282;-94
2021/11/08 03:06:31;;;;;;;;;16.50;13.75;;;;;8.48;68.21;101976.94;6259419;22;45482;-96
2021/11/08 03:09:07;;;;;;;;;18.25;16.75;;;;;8.61;68.58;101997.38;6257331;22;45382;-95
2021/11/08 03:11:33;;;;;;;;;17.75;14.00;;;;;8.48;68.15;101983.91;6262749;22;47255;-95
2021/11/08 03:14:03;;;;;;;;;21.00;16.00;;;;;8.64;68.35;102020.19;6263946;22;45453;-95
2021/11/08 03:16:40;;;;;;;;;14.00;13.75;;;;;8.49;68.57;101996.19;6289583;22;45319;-94
2021/11/08 03:19:23;;;;;;;;;12.00;10.00;;;;;8.50;68.48;102005.81;6259332;22;44744;-95
2021/11/08 03:21:51;;;;;;;;;18.75;14.75;;;;;8.45;68.33;101994.34;6263298;22;47245;-95
2021/11/08 03:29:54;;;;;;;;;17.25;15.00;;;;;8.52;68.36;101991.00;6292651;22;45100;-95
2021/11/08 03:32:21;;;;;;;;;16.25;16.00;;;;;8.50;68.27;101990.06;6263844;22;46603;-95
2021/11/08 03:37:20;;;;;;;;;15.75;15.75;;;;;8.63;68.16;102013.16;6301354;22;44719;-94
2021/11/08 03:39:45;;;;;;;;;16.50;13.25;;;;;8.60;68.31;102013.94;6274607;22;44784;-94
2021/11/08 03:42:13;;;;;;;;;15.25;15.00;;;;;8.65;68.12;102029.81;6276011;22;47257;-95
2021/11/08 03:44:39;;;;;;;;;22.00;20.00;;;;;8.64;68.13;102040.31;6276510;22;44714;-95
2021/11/08 03:47:05;;;;;;;;;17.50;17.00;;;;;8.36;68.12;101994.94;6303125;22;44759;-94
2021/11/08 03:49:31;;;;;;;;;18.75;16.75;;;;;8.48;68.29;102020.66;6277633;22;44831;-95
2021/11/08 03:52:00;;;;;;;;;24.00;21.00;;;;;8.51;68.12;102025.97;6277353;22;47026;-95
2021/11/08 03:54:26;;;;;;;;;18.50;18.50;;;;;8.36;68.15;102002.81;6277040;22;44750;-95
2021/11/08 03:56:52;;;;;;;;;20.50;17.50;;;;;8.30;68.25;101995.66;6277119;22;44800;-94
2021/11/08 03:59:18;;;;;;;;;20.75;14.00;;;;;8.34;68.20;101992.28;6277341;22;44785;-94
2021/11/08 04:01:45;;;;;;;;;21.50;19.50;;;;;8.28;68.26;101978.13;6276961;22;47059;-94
2021/11/08 04:04:11;;;;;;;;;18.75;18.25;;;;;8.24;68.18;101984.16;6276939;22;45077;-94
2021/11/08 04:06:39;;;;;;;;;21.25;19.25;;;;;8.29;68.07;101990.41;6276441;22;44672;-96
2021/11/08 04:09:08;;;;;;;;;17.25;17.25;;;;;8.16;67.99;101965.59;6300328;22;44882;-96
2021/11/08 04:11:34;;;;;;;;;20.25;18.50;;;;;8.13;68.25;101969.00;6271623;22;46951;-94
2021/11/08 04:13:59;;;;;;;;;19.50;16.50;;;;;8.37;68.31;102015.97;6274186;22;44774;-95
2021/11/08 04:16:28;;;;;;;;;17.00;17.00;;;;;8.32;68.46;102006.22;6264310;22;45413;-96
2021/11/08 04:18:56;;;;;;;;;20.25;19.25;;;;;8.17;68.11;101978.72;6264929;22;45271;-95
2021/11/08 04:21:22;;;;;;;;;19.50;17.25;;;;;8.30;68.25;102008.78;6259010;22;46701;-95
2021/11/08 04:23:48;;;;;;;;;23.50;19.50;;;;;8.24;68.05;101992.91;6286204;22;45327;-95
2021/11/08 04:26:19;;;;;;;;;24.50;17.00;;;;;8.15;68.73;101982.16;6261984;22;44723;-95
2021/11/08 04:28:58;;;;;;;;;19.00;16.50;;;;;8.31;68.14;102009.66;6260442;22;44989;-95
2021/11/08 04:31:24;;;;;;;;;20.75;16.50;;;;;8.15;68.03;101980.44;6264581;22;47031;-94
2021/11/08 04:33:57;;;;;;;;;15.00;13.75;;;;;8.23;68.07;102000.72;6258582;22;45219;-94
2021/11/08 04:41:52;;;;;;;;;18.75;14.75;;;;;8.09;68.27;101998.63;6291386;22;45406;-95
2021/11/08 04:50:00;;;;;;;;;13.50;12.00;;;;;8.18;68.43;102014.63;6292452;22;44684;-94
2021/11/08 04:52:39;;;;;;;;;13.75;13.25;;;;;8.14;68.59;101998.75;6262889;22;46915;-96
2021/11/08 04:55:11;;;;;;;;;20.25;15.00;;;;;8.30;68.29;102015.78;6265675;22;44755;-96
2021/11/08 05:24:38;;;;;;;;;21.25;18.50;;;;;8.43;68.08;102023.16;6285349;22;45342;-95
2021/11/08 05:32:28;;;;;;;;;20.75;20.25;;;;;8.27;68.27;102006.09;6293777;22;44800;-95
2021/11/08 05:34:54;;;;;;;;;22.00;19.25;;;;;8.32;68.38;102003.59;6266347;22;47453;-96
2021/11/08 05:37:31;;;;;;;;;19.50;16.75;;;;;8.51;68.50;102041.72;6295048;22;44713;-95
2021/11/08 05:40:09;;;;;;;;;20.25;18.75;;;;;8.38;68.29;102023.00;6268688;22;44768;-96
2021/11/08 05:42:38;;;;;;;;;25.00;20.25;;;;;8.50;68.54;102050.44;6266404;22;44775;-95
2021/11/08 05:45:07;;;;;;;;;27.25;19.00;;;;;8.37;68.33;102028.22;6266320;22;47360;-95
2021/11/08 05:47:36;;;;;;;;;20.25;19.00;;;;;8.27;68.38;102006.09;6268393;22;44678;-96
2021/11/08 05:50:06;;;;;;;;;26.25;23.75;;;;;8.50;68.40;102048.72;6268294;22;45349;-96
2021/11/08 05:52:41;;;;;;;;;24.00;19.00;;;;;8.50;68.40;102042.56;6293056;22;44882;-96
2021/11/08 05:55:10;;;;;;;;;24.25;17.75;;;;;8.34;68.17;102013.28;6261747;22;46786;-94
2021/11/08 05:57:43;;;;;;;;;29.50;23.75;;;;;8.33;68.15;102015.84;6260160;22;45243;-96
2021/11/08 06:50:34;;;;;;;;;18.50;18.50;;;;;8.15;68.92;102094.94;6282746;22;45098;-91
2021/11/08 06:53:06;;;;;;;;;30.75;24.00;;;;;8.17;68.88;102103.75;6282310;22;45518;-89
2021/11/08 06:55:33;;;;;;;;;23.00;22.50;;;;;8.13;68.82;102091.41;6258758;22;45251;-91
2021/11/08 06:58:04;;;;;;;;;30.75;27.25;;;;;8.26;69.03;102119.75;6260172;22;44886;-89
2021/11/08 07:00:31;;;;;;;;;28.50;27.25;;;;;8.26;68.88;102111.88;6266752;22;47119;-90
2021/11/08 07:02:57;;;;;;;;;38.75;30.25;;;;;8.27;69.07;102107.53;6286817;22;45278;-89
2021/11/08 07:05:23;;;;;;;;;39.00;33.50;;;;;8.21;69.19;102105.63;6255216;22;45249;-88
2021/11/08 07:07:48;;;;;;;;;39.75;36.75;;;;;8.27;68.97;102116.28;6279930;22;45102;-89
2021/11/08 07:10:19;;;;;;;;;37.25;31.25;;;;;8.22;68.98;102112.63;6281735;22;46863;-89
2021/11/08 07:12:45;;;;;;;;;36.00;30.25;;;;;8.29;69.25;102121.59;6281743;22;45390;-90
2021/11/08 07:15:10;;;;;;;;;24.50;22.25;;;;;8.12;68.93;102105.34;6281605;22;45307;-89
2021/11/08 07:17:36;;;;;;;;;25.75;23.75;;;;;8.14;68.97;102107.16;6281445;22;45338;-88
2021/11/08 07:20:02;;;;;;;;;25.50;23.25;;;;;8.29;69.04;102130.34;6256685;22;46779;-92
2021/11/08 07:22:28;;;;;;;;;31.00;25.25;;;;;8.27;69.09;102126.78;6254420;22;45738;-87
2021/11/08 07:24:53;;;;;;;;;27.25;27.00;;;;;8.16;69.05;102107.22;6282922;22;45267;-89
2021/11/08 07:27:19;;;;;;;;;27.00;25.25;;;;;8.22;69.10;102115.25;6257531;22;45315;-90
2021/11/08 07:29:45;;;;;;;;;29.00;25.50;;;;;8.16;69.36;102115.09;6279843;22;46291;-89
2021/11/08 07:32:10;;;;;;;;;29.50;21.50;;;;;8.20;69.44;102113.44;6252556;22;45218;-86
2021/11/08 07:34:36;;;;;;;;;30.00;25.75;;;;;8.23;69.33;102108.28;6252698;22;45208;-86
2021/11/08 07:37:02;;;;;;;;;23.50;21.25;;;;;8.28;69.15;102122.41;6278923;22;45506;-88
2021/11/08 07:39:28;;;;;;;;;27.25;25.25;;;;;8.36;69.17;102128.75;6252680;22;47440;-88
2021/11/08 07:41:53;;;;;;;;;25.00;21.25;;;;;8.46;69.26;102148.31;6279732;22;45276;-86
2021/11/08 07:44:19;;;;;;;;;24.00;21.00;;;;;8.28;69.13;102111.91;6252600;22;45366;-87
2021/11/08 07:46:45;;;;;;;;;26.00;21.00;;;;;8.42;69.03;102130.69;6280301;22;45259;-87
2021/11/08 07:49:11;;;;;;;;;26.50;20.50;;;;;8.46;69.11;102138.69;6281776;22;45377;-88
2021/11/08 07:51:37;;;;;;;;;22.75;20.75;;;;;8.49;69.22;102137.91;6279200;22;45285;-87
2021/11/08 07:54:02;;;;;;;;;27.00;25.25;;;;;8.65;69.16;102152.31;6253847;22;45394;-87
2021/11/08 07:56:28;;;;;;;;;25.75;21.50;;;;;8.52;69.15;102119.59;6251707;22;45188;-87
2021/11/08 07:58:54;;;;;;;;;33.75;28.50;;;;;8.73;68.84;102149.06;6253159;22;46042;-86
2021/11/08 08:01:20;;;;;;;;;28.50;26.25;;;;;8.60;69.07;102131.19;6252050;22;45196;-86
2021/11/08 08:03:47;;;;;;;;;30.75;25.50;;;;;8.74;68.89;102148.22;6254689;22;45098;-87
2021/11/08 08:06:14;;;;;;;;;32.25;22.50;;;;;8.77;69.05;102143.03;6280917;22;45256;-88
2021/11/08 08:08:41;;;;;;;;;19.50;19.50;;;;;8.76;68.64;102128.13;6252908;22;48390;-87
2021/11/08 08:11:07;;;;;;;;;26.75;22.25;;;;;8.82;68.62;102135.25;6253515;22;45281;-87
2021/11/08 08:13:34;;;;;;;;;26.50;24.50;;;;;8.72;68.57;102121.03;6253100;22;45354;-86
2021/11/08 08:16:01;;;;;;;;;31.25;25.50;;;;;8.94;68.82;102159.22;6279332;22;45499;-88
2021/11/08 08:18:29;;;;;;;;;34.00;26.25;;;;;8.99;68.37;102167.25;6280434;22;45389;-88
2021/11/08 08:20:56;;;;;;;;;34.00;31.50;;;;;8.99;68.46;102151.47;6253523;22;45300;-88
2021/11/08 08:23:22;;;;;;;;;25.50;24.00;;;;;9.10;68.58;102170.13;6254712;22;45177;-91
2021/11/08 08:25:48;;;;;;;;;28.50;25.50;;;;;9.11;68.47;102164.03;6283758;22;45390;-90
2021/11/08 08:28:14;;;;;;;;;30.25;28.50;;;;;9.03;68.46;102143.72;6254083;22;46840;-91
2021/11/08 08:30:40;;;;;;;;;29.00;23.25;;;;;9.12;68.03;102147.44;6283717;22;45209;-89
2021/11/08 08:33:05;;;;;;;;;22.50;19.00;;;;;9.13;68.28;102154.44;6254281;22;45174;-90
2021/11/08 08:35:40;;;;;;;;;27.00;24.00;;;;;9.05;67.90;102138.50;6255900;22;45124;-89
2021/11/08 08:38:24;;;;;;;;;;;;;;;;;;;;;
2021/11/08 08:40:55;;;;;;;;;29.50;26.00;;;;;9.18;68.06;102161.59;6282772;22;72844;-91
2021/11/08 08:43:32;;;;;;;;;32.25;26.00;;;;;9.13;67.84;102146.56;6256884;22;44840;-91
2021/11/08 08:45:58;;;;;;;;;27.25;22.00;;;;;9.12;67.82;102132.53;6256453;22;45193;-88
2021/11/08 08:48:35;;;;;;;;;27.50;25.50;;;;;9.26;68.09;102157.41;6284890;22;45237;-94
2021/11/08 08:51:02;;;;;;;;;26.50;24.75;;;;;9.27;67.94;102158.28;6260049;22;45250;-93
2021/11/08 08:53:29;;;;;;;;;18.00;15.00;;;;;9.43;67.99;102188.47;6259663;22;45470;-92
2021/11/08 08:56:00;;;;;;;;;29.75;27.25;;;;;9.42;67.92;102176.19;6256014;22;45539;-92
2021/11/08 08:58:26;;;;;;;;;28.50;26.00;;;;;9.38;67.84;102162.09;6281972;22;47016;-91
2021/11/08 09:00:56;;;;;;;;;28.75;24.25;;;;;9.40;67.83;102157.75;6283062;22;45281;-92
2021/11/08 09:03:42;;;;;;;;;32.50;27.00;;;;;9.63;67.91;102187.22;6254707;22;44648;-89
2021/11/08 09:06:17;;;;;;;;;26.25;25.00;;;;;9.51;67.95;102152.72;6255663;22;45416;-92
2021/11/08 09:08:53;;;;;;;;;;;;;;;;;;;;;
2021/11/08 09:11:25;;;;;;;;;22.75;22.75;;;;;9.61;67.64;102154.72;6282706;22;72060;-91
2021/11/08 09:13:51;;;;;;;;;29.00;23.25;;;;;9.72;67.59;102158.47;6253999;22;45375;-89
2021/11/08 09:17:17;;;;;;;;;24.75;21.50;;;;;9.81;67.22;102159.53;6255850;22;45450;-90
2021/11/08 09:20:03;;;;;;;;;28.75;23.75;;;;;9.90;67.48;102168.53;6273900;22;47992;-92
2021/11/08 09:22:32;;;;;;;;;26.00;23.50;;;;;9.81;67.41;102155.19;6257791;22;45207;-92
2021/11/08 09:25:00;;;;;;;;;28.50;26.50;;;;;10.00;67.34;102180.16;6282210;22;45281;-93
2021/11/08 09:27:25;;;;;;;;;25.50;23.75;;;;;9.99;67.17;102170.47;6260835;22;45509;-92
2021/11/08 09:29:51;;;;;;;;;27.00;25.25;;;;;9.99;67.32;102157.31;6283067;22;46933;-94
2021/11/08 09:32:17;;;;;;;;;29.00;24.25;;;;;10.04;67.21;102157.41;6257482;22;45375;-91
2021/11/08 09:34:48;;;;;;;;;28.50;24.25;;;;;10.09;67.18;102158.41;6258802;22;45410;-92
2021/11/08 09:37:41;;;;;;;;;;;;;;;;;;;;;
2021/11/08 09:40:08;;;;;;;;;30.25;26.25;;;;;10.30;66.85;102163.28;6281271;22;45173;-91
2021/11/08 09:43:22;;;;;;;;;22.00;18.75;;;;;10.40;66.53;102167.88;6254050;22;45429;-90
2021/11/08 09:45:49;;;;;;;;;23.50;21.75;;;;;10.43;66.21;102151.25;6259352;22;45224;-93
2021/11/08 09:48:15;;;;;;;;;23.75;19.75;;;;;10.53;66.41;102148.81;6258875;22;45566;-94
2021/11/08 09:50:43;;;;;;;;;22.25;22.25;;;;;10.69;65.99;102156.97;6263850;22;45253;-94
2021/11/08 09:53:11;;;;;;;;;21.25;20.50;;;;;10.74;65.86;102148.31;6268995;22;44759;-94
2021/11/08 09:55:41;;;;;;;;;28.75;25.50;;;;;10.98;65.61;102162.78;6240270;22;45324;-89
2021/11/08 10:05:45;;;;;;;;;7.50;4.50;;;;;11.48;64.63;102175.91;6024590;23;45462;-90
2021/11/08 10:08:22;;;;;;;;;30.50;25.50;;;;;11.47;64.57;102148.66;6025479;23;45267;-91
2021/11/08 10:10:50;;;;;;;;;17.25;14.50;;;;;11.64;64.33;102158.56;6195301;23;45174;-89
2021/11/08 10:13:56;;;;;;;;;21.25;18.00;;;;;11.64;63.93;102138.34;6256815;22;47306;-90
2021/11/08 10:16:28;;;;;;;;;21.75;20.50;;;;;11.78;63.64;102130.63;6281446;22;45204;-94
2021/11/08 10:19:22;;;;;;;;;24.75;21.75;;;;;12.05;63.26;102151.25;6255780;22;45297;-89
2021/11/08 10:22:07;;;;;;;;;26.00;24.50;;;;;12.10;63.50;102135.47;6282105;22;45267;-92
2021/11/08 10:24:41;;;;;;;;;24.75;23.75;;;;;12.25;63.56;102146.22;6251719;22;46142;-89
2021/11/08 10:27:10;;;;;;;;;29.00;24.50;;;;;12.47;62.42;102150.00;6284264;22;45311;-87
2021/11/08 10:30:18;;;;;;;;;26.50;23.00;;;;;12.60;62.09;102148.38;6252651;22;45184;-88
2021/11/08 11:12:22;;;;;;;;;;;;;;;;;;;;;
2021/11/08 11:15:08;;;;;;;;;15.25;11.75;;;;;14.07;55.94;102149.53;5902149;23;72103;-89
2021/11/08 11:18:08;;;;;;;;;9.75;9.50;;;;;14.18;55.93;102146.91;6116869;22;47204;-91
2021/11/08 11:20:36;;;;;;;;;11.75;9.50;;;;;14.33;55.46;102140.81;6249652;22;45406;-90
2021/11/08 11:23:16;;;;;;;;;11.75;9.25;;;;;14.54;55.16;102143.53;6256039;22;45177;-91
2021/11/08 11:25:53;;;;;;;;;13.00;11.75;;;;;14.73;55.02;102136.50;6279894;22;45081;-90
2021/11/08 11:28:41;;;;;;;;;11.00;9.25;;;;;14.88;54.36;102132.09;6253887;22;47073;-88
2021/11/08 11:31:34;;;;;;;;;10.25;7.25;;;;;15.21;54.04;102136.53;6279336;22;45376;-93
2021/11/08 11:37:42;;;;;;;;;;;;;;;;;;;;;
2021/11/08 11:40:11;;;;;;;;;8.33;7.00;;;;;15.85;51.99;102120.53;6282191;22;74628;-89
2021/11/08 11:42:47;;;;;;;;;8.25;8.25;;;;;16.02;50.98;102119.56;6279548;22;45270;-89
2021/11/08 11:45:13;;;;;;;;;12.00;7.25;;;;;16.21;49.90;102113.28;6258039;22;45398;-90
2021/11/08 11:47:41;;;;;;;;;9.25;8.00;;;;;16.40;50.57;102115.81;6252631;22;45332;-88
2021/11/08 11:50:08;;;;;;;;;8.00;5.67;;;;;16.48;48.92;102090.97;6254229;22;46645;-87
2021/11/08 11:52:49;;;;;;;;;7.00;5.00;;;;;16.60;49.31;102091.75;6253437;22;45430;-89
2021/11/08 11:55:15;;;;;;;;;4.33;4.33;;;;;16.81;48.61;102101.41;6253531;22;45192;-89
2021/11/08 11:57:46;;;;;;;;;6.00;5.00;;;;;16.95;47.69;102088.88;6254702;22;45204;-88
2021/11/08 12:00:12;;;;;;;;;5.00;4.67;;;;;17.23;47.17;102092.16;6251180;22;46775;-88
2021/11/08 12:02:38;;;;;;;;;4.67;4.00;;;;;17.41;46.77;102088.44;6253126;22;45425;-88
2021/11/08 12:05:05;;;;;;;;;4.33;4.33;;;;;17.61;42.33;102102.44;6277756;22;45255;-88
2021/11/08 12:07:45;;;;;;;;;3.00;3.00;;;;;17.57;44.44;102100.69;6254319;22;45379;-89
2021/11/08 12:10:32;;;;;;;;;3.33;3.00;;;;;17.67;44.21;102090.81;6251574;22;46988;-88
2021/11/08 12:13:45;;;;;;;;;8.33;5.67;;;;;17.85;43.97;102087.97;6255334;22;45293;-88
2021/11/08 12:16:19;;;;;;;;;3.00;3.00;;;;;17.91;42.93;102064.78;6251080;22;45362;-88
2021/11/08 12:19:23;;;;;;;;;6.33;4.33;;;;;18.18;43.51;102068.91;6253069;22;45349;-89
2021/11/08 12:21:50;;;;;;;;;4.33;3.33;;;;;18.58;42.74;102082.50;6252420;22;47145;-89
2021/11/08 12:24:32;;;;;;;;;3.67;3.33;;;;;18.72;42.07;102063.63;6252022;22;45729;-88
2021/11/08 12:27:23;;;;;;;;;5.00;5.00;;;;;19.05;41.85;102061.31;6251992;22;45239;-89
2021/11/08 12:29:53;;;;;;;;;4.67;4.00;;;;;19.58;42.16;102054.06;6276397;22;45338;-88
2021/11/08 12:32:30;;;;;;;;;4.00;4.00;;;;;20.09;40.88;102056.56;6252133;22;48153;-89
2021/11/08 12:35:09;;;;;;;;;;;;;;;;;;;;;
2021/11/08 12:37:49;;;;;;;;;;;;;;;;;;;;;
2021/11/08 12:40:32;;;;;;;;;7.00;6.00;;;;;21.06;39.26;102062.28;6281905;22;73587;-89
2021/11/08 12:43:57;;;;;;;;;;;;;;;;;;;;;
2021/11/08 12:46:37;;;;;;;;;;;;;;;;;;;;;
2021/11/08 12:49:50;;;;;;;;;;;;;;;;;;;;;
2021/11/08 12:52:52;;;;;;;;;;;;;;;;;;;;;
2021/11/08 12:55:39;;;;;;;;;6.33;5.00;;;;;22.36;36.39;102030.84;6268023;22;73237;-88
2021/11/08 12:58:10;;;;;;;;;6.67;5.00;;;;;22.16;36.80;102032.34;6254773;22;45382;-88
2021/11/08 13:00:53;;;;;;;;;;;;;;;;;;;;;
2021/11/08 13:03:36;;;;;;;;;3.67;3.00;;;;;20.89;35.16;102038.63;6281269;22;72598;-90
2021/11/08 13:06:04;;;;;;;;;5.33;5.00;;;;;20.48;36.12;102035.19;6258173;22;47092;-90
2021/11/08 13:08:34;;;;;;;;;6.67;4.00;;;;;20.10;36.67;102038.72;6254031;22;45295;-91
2021/11/08 13:11:25;;;;;;;;;;;;;;;;;;;;;
2021/11/08 13:14:00;;;;;;;;;4.33;3.67;;;;;19.29;37.31;102036.81;6281984;22;71959;-89
2021/11/08 13:16:39;;;;;;;;;5.33;3.33;;;;;19.27;38.31;102027.06;6257356;22;47243;-89
2021/11/08 13:19:51;;;;;;;;;;;;;;;;;;;;;
2021/11/08 13:30:28;;;;;;;;;;;;;;;;;;;;;
2021/11/08 13:39:50;;;;;;;;;;;;;;;;;;;;;
2021/11/08 14:10:47;;;;;;;;;;;;;;;;;;;;;
2021/11/08 14:13:13;;;;;;;;;4.33;4.00;;;;;18.19;38.77;102018.22;6131568;23;72893;-89
2021/11/08 14:15:39;;;;;;;;;5.00;3.00;;;;;18.20;39.33;102035.06;6152222;23;45500;-87
2021/11/08 14:18:04;;;;;;;;;3.67;3.67;;;;;18.48;39.39;102028.44;6218000;22;45476;-91
2021/11/08 14:20:33;;;;;;;;;4.00;4.00;;;;;18.99;39.50;102032.94;6256654;22;46950;-94
2021/11/08 14:23:39;;;;;;;;;3.67;3.67;;;;;19.55;38.67;102019.41;6248035;22;45597;-92
2021/11/08 14:26:47;;;;;;;;;7.33;6.67;;;;;19.53;38.39;102030.09;6266869;22;45391;-90
2021/11/08 14:29:29;;;;;;;;;5.00;4.33;;;;;19.22;37.88;102020.94;6270272;22;45318;-89
2021/11/08 14:32:29;;;;;;;;;2.00;1.00;;;;;18.92;38.32;102026.84;6249889;22;48069;-88
2021/11/08 14:35:06;;;;;;;;;6.67;5.00;;;;;18.59;38.60;102025.59;6243058;22;45793;-88
2021/11/08 14:38:03;;;;;;;;;4.33;3.33;;;;;18.29;39.20;102030.50;6248814;22;45576;-87
2021/11/08 14:40:34;;;;;;;;;4.33;4.33;;;;;18.03;39.61;102028.22;6272605;22;45363;-87
2021/11/08 14:44:13;;;;;;;;;;;;;;;;;;;;;
2021/11/08 14:46:51;;;;;;;;;2.67;2.67;;;;;18.30;39.96;102042.03;6275664;22;45325;-90
2021/11/08 14:49:24;;;;;;;;;4.33;4.33;;;;;19.33;39.76;102040.31;6270264;22;45315;-88
2021/11/08 14:52:22;;;;;;;;;4.33;4.33;;;;;20.50;38.26;102036.00;6272868;22;45389;-89
2021/11/08 14:54:56;;;;;;;;;4.33;3.33;;;;;21.32;36.69;102037.47;6255267;22;47193;-90
2021/11/08 14:57:23;;;;;;;;;4.00;4.00;;;;;21.80;35.57;102043.25;6272524;22;45815;-86
2021/11/08 14:59:54;;;;;;;;;3.00;2.00;;;;;21.78;35.23;102039.75;6268330;22;45505;-87
2021/11/08 15:02:25;;;;;;;;;3.00;3.00;;;;;21.69;35.33;102048.06;6267086;22;45343;-87
2021/11/08 15:04:57;;;;;;;;;3.67;3.67;;;;;21.40;35.28;102042.66;6243660;22;47790;-88
2021/11/08 15:07:37;;;;;;;;;7.00;4.00;;;;;21.03;35.24;102043.63;6272588;22;45535;-88
2021/11/08 15:10:48;;;;;;;;;5.00;4.00;;;;;20.55;35.86;102051.97;6272584;22;45314;-92
2021/11/08 15:13:14;;;;;;;;;5.00;3.00;;;;;20.03;36.59;102051.38;6156502;23;45740;-90
2021/11/08 17:04:19;;;;;;;;;20.25;19.50;;;;;13.88;49.27;102131.78;6171876;22;45858;-87
2021/11/08 18:20:17;;;;;;;;;25.75;24.25;;;;;12.87;53.51;102179.50;6012549;23;45594;-93
2021/11/08 18:29:49;;;;;;;;;;;;;;;;;;;;;
2021/11/08 19:26:56;;;;;;;;;21.75;21.75;;;;;12.25;56.12;102203.44;5684860;24;45999;-90
2021/11/08 20:07:59;;;;;;;;;39.00;32.75;;;;;11.88;57.44;102214.38;5842284;24;45524;-86
2021/11/08 20:14:52;;;;;;;;;;;;;;;;;;;;;